sensor_id;sensor_type;location;lat;lon;timestamp;temperature;humidity
24144;DHT22;12307;50.828;6.080;2023-04-24T00:00:46;20.20;54.30
24144;DHT22;12307;50.828;6.080;2023-04-24T00:03:13;20.30;54.30
24144;DHT22;12307;50.828;6.080;2023-04-24T00:05:39;20.30;54.30
24144;DHT22;12307;50.828;6.080;2023-04-24T00:08:05;20.30;54.30
24144;DHT22;12307;50.828;6.080;2023-04-24T00:10:31;20.20;54.30
24144;DHT22;12307;50.828;6.080;2023-04-24T00:12:57;20.20;54.30
24144;DHT22;12307;50.828;6.080;2023-04-24T00:15:23;20.20;54.20
24144;DHT22;12307;50.828;6.080;2023-04-24T00:17:49;20.30;54.30
24144;DHT22;12307;50.828;6.080;2023-04-24T00:20:16;20.30;54.30
24144;DHT22;12307;50.828;6.080;2023-04-24T00:22:42;20.20;54.20
24144;DHT22;12307;50.828;6.080;2023-04-24T00:25:08;20.20;54.30
24144;DHT22;12307;50.828;6.080;2023-04-24T00:27:34;20.20;54.30
24144;DHT22;12307;50.828;6.080;2023-04-24T00:30:02;20.20;54.30
24144;DHT22;12307;50.828;6.080;2023-04-24T00:32:28;20.20;54.30
24144;DHT22;12307;50.828;6.080;2023-04-24T00:34:57;20.20;54.30
24144;DHT22;12307;50.828;6.080;2023-04-24T00:37:24;20.20;54.30
24144;DHT22;12307;50.828;6.080;2023-04-24T00:39:49;20.20;54.30
24144;DHT22;12307;50.828;6.080;2023-04-24T00:42:15;20.20;54.30
24144;DHT22;12307;50.828;6.080;2023-04-24T00:44:41;20.20;54.30
24144;DHT22;12307;50.828;6.080;2023-04-24T00:47:07;20.20;54.30
24144;DHT22;12307;50.828;6.080;2023-04-24T00:49:33;20.20;54.20
24144;DHT22;12307;50.828;6.080;2023-04-24T00:51:59;20.20;54.30
24144;DHT22;12307;50.828;6.080;2023-04-24T00:54:26;20.20;54.30
24144;DHT22;12307;50.828;6.080;2023-04-24T00:56:52;20.20;54.30
24144;DHT22;12307;50.828;6.080;2023-04-24T00:59:18;20.20;54.30
24144;DHT22;12307;50.828;6.080;2023-04-24T01:01:44;20.10;54.20
24144;DHT22;12307;50.828;6.080;2023-04-24T01:04:11;20.20;54.30
24144;DHT22;12307;50.828;6.080;2023-04-24T01:06:39;20.20;54.30
24144;DHT22;12307;50.828;6.080;2023-04-24T01:09:05;20.20;54.30
24144;DHT22;12307;50.828;6.080;2023-04-24T01:11:34;20.20;54.30
24144;DHT22;12307;50.828;6.080;2023-04-24T01:14:01;20.20;54.30
24144;DHT22;12307;50.828;6.080;2023-04-24T01:16:27;20.10;54.20
24144;DHT22;12307;50.828;6.080;2023-04-24T01:18:52;20.10;54.20
24144;DHT22;12307;50.828;6.080;2023-04-24T01:21:19;20.10;54.30
24144;DHT22;12307;50.828;6.080;2023-04-24T01:23:47;20.10;54.20
24144;DHT22;12307;50.828;6.080;2023-04-24T01:26:16;20.10;54.30
24144;DHT22;12307;50.828;6.080;2023-04-24T01:28:42;20.10;54.30
24144;DHT22;12307;50.828;6.080;2023-04-24T01:31:08;20.10;54.30
24144;DHT22;12307;50.828;6.080;2023-04-24T01:33:34;20.10;54.30
24144;DHT22;12307;50.828;6.080;2023-04-24T01:36:00;20.10;54.30
24144;DHT22;12307;50.828;6.080;2023-04-24T01:38:26;20.10;54.30
24144;DHT22;12307;50.828;6.080;2023-04-24T01:40:54;20.10;54.30
24144;DHT22;12307;50.828;6.080;2023-04-24T01:43:19;20.10;54.30
24144;DHT22;12307;50.828;6.080;2023-04-24T01:45:45;20.10;54.30
24144;DHT22;12307;50.828;6.080;2023-04-24T01:48:11;20.10;54.30
24144;DHT22;12307;50.828;6.080;2023-04-24T01:50:38;20.10;54.30
24144;DHT22;12307;50.828;6.080;2023-04-24T01:53:03;20.10;54.30
24144;DHT22;12307;50.828;6.080;2023-04-24T01:55:29;20.10;54.30
24144;DHT22;12307;50.828;6.080;2023-04-24T01:57:56;20.10;54.30
24144;DHT22;12307;50.828;6.080;2023-04-24T02:00:24;20.10;54.30
24144;DHT22;12307;50.828;6.080;2023-04-24T02:02:50;20.10;54.30
24144;DHT22;12307;50.828;6.080;2023-04-24T02:05:16;20.10;54.30
24144;DHT22;12307;50.828;6.080;2023-04-24T02:07:41;20.10;54.40
24144;DHT22;12307;50.828;6.080;2023-04-24T02:10:08;20.10;54.30
24144;DHT22;12307;50.828;6.080;2023-04-24T02:12:34;20.10;54.40
24144;DHT22;12307;50.828;6.080;2023-04-24T02:15:01;20.10;54.30
24144;DHT22;12307;50.828;6.080;2023-04-24T02:17:27;20.10;54.40
24144;DHT22;12307;50.828;6.080;2023-04-24T02:19:52;20.10;54.30
24144;DHT22;12307;50.828;6.080;2023-04-24T02:22:18;20.10;54.40
24144;DHT22;12307;50.828;6.080;2023-04-24T02:24:44;20.00;54.30
24144;DHT22;12307;50.828;6.080;2023-04-24T02:27:10;20.10;54.40
24144;DHT22;12307;50.828;6.080;2023-04-24T02:29:36;20.00;54.30
24144;DHT22;12307;50.828;6.080;2023-04-24T02:32:03;20.10;54.40
24144;DHT22;12307;50.828;6.080;2023-04-24T02:34:29;20.00;54.30
24144;DHT22;12307;50.828;6.080;2023-04-24T02:36:55;20.10;55.00
24144;DHT22;12307;50.828;6.080;2023-04-24T02:39:21;20.10;54.40
24144;DHT22;12307;50.828;6.080;2023-04-24T02:41:47;20.00;54.30
24144;DHT22;12307;50.828;6.080;2023-04-24T02:44:12;20.00;54.30
24144;DHT22;12307;50.828;6.080;2023-04-24T02:46:38;20.00;54.30
24144;DHT22;12307;50.828;6.080;2023-04-24T02:49:05;20.00;54.40
24144;DHT22;12307;50.828;6.080;2023-04-24T02:51:31;20.10;54.40
24144;DHT22;12307;50.828;6.080;2023-04-24T02:53:56;20.00;54.30
24144;DHT22;12307;50.828;6.080;2023-04-24T02:56:22;20.00;54.30
24144;DHT22;12307;50.828;6.080;2023-04-24T02:58:48;20.00;54.30
24144;DHT22;12307;50.828;6.080;2023-04-24T03:01:14;20.00;54.30
24144;DHT22;12307;50.828;6.080;2023-04-24T03:03:40;20.00;54.30
24144;DHT22;12307;50.828;6.080;2023-04-24T03:06:07;20.00;54.40
24144;DHT22;12307;50.828;6.080;2023-04-24T03:08:33;20.00;54.30
24144;DHT22;12307;50.828;6.080;2023-04-24T03:10:59;20.00;54.30
24144;DHT22;12307;50.828;6.080;2023-04-24T03:13:25;20.00;54.40
24144;DHT22;12307;50.828;6.080;2023-04-24T03:15:50;20.00;54.40
24144;DHT22;12307;50.828;6.080;2023-04-24T03:18:16;20.00;54.40
24144;DHT22;12307;50.828;6.080;2023-04-24T03:20:42;20.00;54.40
24144;DHT22;12307;50.828;6.080;2023-04-24T03:23:09;20.00;54.40
24144;DHT22;12307;50.828;6.080;2023-04-24T03:25:35;20.00;54.40
24144;DHT22;12307;50.828;6.080;2023-04-24T03:28:01;20.00;54.40
24144;DHT22;12307;50.828;6.080;2023-04-24T03:30:26;20.00;54.40
24144;DHT22;12307;50.828;6.080;2023-04-24T03:32:52;20.00;54.40
24144;DHT22;12307;50.828;6.080;2023-04-24T03:35:18;20.00;54.40
24144;DHT22;12307;50.828;6.080;2023-04-24T03:37:43;20.00;54.40
24144;DHT22;12307;50.828;6.080;2023-04-24T03:40:11;20.00;54.40
24144;DHT22;12307;50.828;6.080;2023-04-24T03:42:36;20.00;54.40
24144;DHT22;12307;50.828;6.080;2023-04-24T03:45:03;20.00;54.40
24144;DHT22;12307;50.828;6.080;2023-04-24T03:47:28;20.00;54.40
24144;DHT22;12307;50.828;6.080;2023-04-24T03:49:57;20.00;54.40
24144;DHT22;12307;50.828;6.080;2023-04-24T03:52:23;20.00;54.40
24144;DHT22;12307;50.828;6.080;2023-04-24T03:54:48;19.90;54.40
24144;DHT22;12307;50.828;6.080;2023-04-24T03:57:15;20.00;54.40
24144;DHT22;12307;50.828;6.080;2023-04-24T03:59:41;19.90;54.40
24144;DHT22;12307;50.828;6.080;2023-04-24T04:02:07;20.00;54.40
24144;DHT22;12307;50.828;6.080;2023-04-24T04:04:33;20.00;54.40
24144;DHT22;12307;50.828;6.080;2023-04-24T04:06:58;20.00;54.40
24144;DHT22;12307;50.828;6.080;2023-04-24T04:09:26;20.00;54.40
24144;DHT22;12307;50.828;6.080;2023-04-24T04:11:52;20.00;54.40
24144;DHT22;12307;50.828;6.080;2023-04-24T04:14:19;19.90;54.40
24144;DHT22;12307;50.828;6.080;2023-04-24T04:16:45;20.00;54.50
24144;DHT22;12307;50.828;6.080;2023-04-24T04:19:10;19.90;54.40
24144;DHT22;12307;50.828;6.080;2023-04-24T04:21:36;19.90;54.40
24144;DHT22;12307;50.828;6.080;2023-04-24T04:24:02;19.90;54.40
24144;DHT22;12307;50.828;6.080;2023-04-24T04:26:28;19.90;54.40
24144;DHT22;12307;50.828;6.080;2023-04-24T04:28:53;19.90;54.40
24144;DHT22;12307;50.828;6.080;2023-04-24T04:31:21;19.90;54.40
24144;DHT22;12307;50.828;6.080;2023-04-24T04:33:46;19.90;54.40
24144;DHT22;12307;50.828;6.080;2023-04-24T04:36:12;19.90;54.40
24144;DHT22;12307;50.828;6.080;2023-04-24T04:38:38;19.90;54.40
24144;DHT22;12307;50.828;6.080;2023-04-24T04:41:04;19.90;54.40
24144;DHT22;12307;50.828;6.080;2023-04-24T04:43:29;19.90;54.40
24144;DHT22;12307;50.828;6.080;2023-04-24T04:45:57;19.90;54.50
24144;DHT22;12307;50.828;6.080;2023-04-24T04:48:25;19.90;54.50
24144;DHT22;12307;50.828;6.080;2023-04-24T04:50:50;19.90;54.50
24144;DHT22;12307;50.828;6.080;2023-04-24T04:53:16;19.90;54.50
24144;DHT22;12307;50.828;6.080;2023-04-24T04:55:42;19.90;54.50
24144;DHT22;12307;50.828;6.080;2023-04-24T04:58:07;19.90;54.50
24144;DHT22;12307;50.828;6.080;2023-04-24T05:00:33;19.90;54.50
24144;DHT22;12307;50.828;6.080;2023-04-24T05:03:01;19.90;54.50
24144;DHT22;12307;50.828;6.080;2023-04-24T05:05:28;19.90;54.50
24144;DHT22;12307;50.828;6.080;2023-04-24T05:07:54;19.90;54.50
24144;DHT22;12307;50.828;6.080;2023-04-24T05:10:19;19.90;54.50
24144;DHT22;12307;50.828;6.080;2023-04-24T05:12:45;19.90;54.40
24144;DHT22;12307;50.828;6.080;2023-04-24T05:15:11;19.90;54.40
24144;DHT22;12307;50.828;6.080;2023-04-24T05:17:36;19.90;54.40
24144;DHT22;12307;50.828;6.080;2023-04-24T05:20:03;19.90;54.40
24144;DHT22;12307;50.828;6.080;2023-04-24T05:22:32;20.00;54.40
24144;DHT22;12307;50.828;6.080;2023-04-24T05:24:57;20.00;54.40
24144;DHT22;12307;50.828;6.080;2023-04-24T05:27:23;20.00;54.40
24144;DHT22;12307;50.828;6.080;2023-04-24T05:29:49;20.00;54.40
24144;DHT22;12307;50.828;6.080;2023-04-24T05:32:15;20.00;54.40
24144;DHT22;12307;50.828;6.080;2023-04-24T05:34:40;20.00;54.40
24144;DHT22;12307;50.828;6.080;2023-04-24T05:37:06;20.00;54.40
24144;DHT22;12307;50.828;6.080;2023-04-24T05:39:36;20.00;54.40
24144;DHT22;12307;50.828;6.080;2023-04-24T05:42:02;20.00;54.40
24144;DHT22;12307;50.828;6.080;2023-04-24T05:44:29;20.00;54.40
24144;DHT22;12307;50.828;6.080;2023-04-24T05:46:55;19.90;54.40
24144;DHT22;12307;50.828;6.080;2023-04-24T05:49:22;20.00;54.50
24144;DHT22;12307;50.828;6.080;2023-04-24T05:51:47;20.00;54.50
24144;DHT22;12307;50.828;6.080;2023-04-24T05:54:13;19.90;54.50
24144;DHT22;12307;50.828;6.080;2023-04-24T05:56:40;19.90;54.50
24144;DHT22;12307;50.828;6.080;2023-04-24T05:59:08;19.90;54.50
24144;DHT22;12307;50.828;6.080;2023-04-24T06:01:33;19.90;54.50
24144;DHT22;12307;50.828;6.080;2023-04-24T06:03:59;19.90;54.50
24144;DHT22;12307;50.828;6.080;2023-04-24T06:06:25;19.90;54.50
24144;DHT22;12307;50.828;6.080;2023-04-24T06:08:52;19.90;54.50
24144;DHT22;12307;50.828;6.080;2023-04-24T06:11:18;19.90;54.50
24144;DHT22;12307;50.828;6.080;2023-04-24T06:13:45;19.90;54.50
24144;DHT22;12307;50.828;6.080;2023-04-24T06:16:11;19.90;54.60
24144;DHT22;12307;50.828;6.080;2023-04-24T06:18:37;19.90;54.50
24144;DHT22;12307;50.828;6.080;2023-04-24T06:21:03;19.90;54.50
24144;DHT22;12307;50.828;6.080;2023-04-24T06:23:29;19.90;54.50
24144;DHT22;12307;50.828;6.080;2023-04-24T06:25:57;19.90;54.50
24144;DHT22;12307;50.828;6.080;2023-04-24T06:28:23;19.90;54.50
24144;DHT22;12307;50.828;6.080;2023-04-24T06:30:50;19.90;54.50
24144;DHT22;12307;50.828;6.080;2023-04-24T06:33:16;19.90;54.50
24144;DHT22;12307;50.828;6.080;2023-04-24T06:35:41;19.90;54.50
24144;DHT22;12307;50.828;6.080;2023-04-24T06:38:07;19.90;54.60
24144;DHT22;12307;50.828;6.080;2023-04-24T06:40:33;19.90;54.60
24144;DHT22;12307;50.828;6.080;2023-04-24T06:42:59;19.90;54.60
24144;DHT22;12307;50.828;6.080;2023-04-24T06:45:25;19.90;54.60
24144;DHT22;12307;50.828;6.080;2023-04-24T06:47:52;19.90;54.60
24144;DHT22;12307;50.828;6.080;2023-04-24T06:50:18;19.90;54.60
24144;DHT22;12307;50.828;6.080;2023-04-24T06:52:44;19.90;54.60
24144;DHT22;12307;50.828;6.080;2023-04-24T06:55:10;19.90;55.30
24144;DHT22;12307;50.828;6.080;2023-04-24T06:57:36;19.90;54.70
24144;DHT22;12307;50.828;6.080;2023-04-24T07:00:03;19.90;54.70
24144;DHT22;12307;50.828;6.080;2023-04-24T07:02:30;19.90;54.70
24144;DHT22;12307;50.828;6.080;2023-04-24T07:04:57;19.90;54.60
24144;DHT22;12307;50.828;6.080;2023-04-24T07:07:23;19.90;54.70
24144;DHT22;12307;50.828;6.080;2023-04-24T07:09:49;19.90;54.70
24144;DHT22;12307;50.828;6.080;2023-04-24T07:12:16;19.90;54.60
24144;DHT22;12307;50.828;6.080;2023-04-24T07:14:42;19.90;54.60
24144;DHT22;12307;50.828;6.080;2023-04-24T07:17:08;19.90;54.70
24144;DHT22;12307;50.828;6.080;2023-04-24T07:19:34;19.90;54.70
24144;DHT22;12307;50.828;6.080;2023-04-24T07:22:03;19.90;54.70
24144;DHT22;12307;50.828;6.080;2023-04-24T07:24:28;19.90;54.70
24144;DHT22;12307;50.828;6.080;2023-04-24T07:26:54;19.90;54.70
24144;DHT22;12307;50.828;6.080;2023-04-24T07:29:20;19.90;54.70
24144;DHT22;12307;50.828;6.080;2023-04-24T07:31:46;19.90;54.70
24144;DHT22;12307;50.828;6.080;2023-04-24T07:34:12;19.90;54.70
24144;DHT22;12307;50.828;6.080;2023-04-24T07:36:38;19.90;54.80
24144;DHT22;12307;50.828;6.080;2023-04-24T07:39:05;19.90;54.70
24144;DHT22;12307;50.828;6.080;2023-04-24T07:41:31;19.90;54.70
24144;DHT22;12307;50.828;6.080;2023-04-24T07:43:57;19.90;54.70
24144;DHT22;12307;50.828;6.080;2023-04-24T07:46:24;19.90;54.70
24144;DHT22;12307;50.828;6.080;2023-04-24T07:48:50;19.90;54.70
24144;DHT22;12307;50.828;6.080;2023-04-24T07:51:16;19.90;54.70
24144;DHT22;12307;50.828;6.080;2023-04-24T07:53:43;20.00;54.70
24144;DHT22;12307;50.828;6.080;2023-04-24T07:56:10;20.00;54.80
24144;DHT22;12307;50.828;6.080;2023-04-24T07:58:36;20.00;54.70
24144;DHT22;12307;50.828;6.080;2023-04-24T08:01:02;20.00;54.70
24144;DHT22;12307;50.828;6.080;2023-04-24T08:03:27;20.00;54.80
24144;DHT22;12307;50.828;6.080;2023-04-24T08:05:53;20.00;54.80
24144;DHT22;12307;50.828;6.080;2023-04-24T08:08:21;20.00;54.80
24144;DHT22;12307;50.828;6.080;2023-04-24T08:10:47;20.00;54.80
24144;DHT22;12307;50.828;6.080;2023-04-24T08:13:15;20.00;54.80
24144;DHT22;12307;50.828;6.080;2023-04-24T08:15:40;20.00;54.80
24144;DHT22;12307;50.828;6.080;2023-04-24T08:18:06;20.00;54.80
24144;DHT22;12307;50.828;6.080;2023-04-24T08:20:32;19.90;54.80
24144;DHT22;12307;50.828;6.080;2023-04-24T08:22:58;20.00;54.80
24144;DHT22;12307;50.828;6.080;2023-04-24T08:25:23;20.00;54.80
24144;DHT22;12307;50.828;6.080;2023-04-24T08:27:50;20.00;54.80
24144;DHT22;12307;50.828;6.080;2023-04-24T08:30:17;20.00;54.80
24144;DHT22;12307;50.828;6.080;2023-04-24T08:32:43;20.00;54.80
24144;DHT22;12307;50.828;6.080;2023-04-24T08:35:09;20.00;54.80
24144;DHT22;12307;50.828;6.080;2023-04-24T08:37:37;20.00;54.80
24144;DHT22;12307;50.828;6.080;2023-04-24T08:40:06;20.00;54.80
24144;DHT22;12307;50.828;6.080;2023-04-24T08:42:36;20.00;54.80
24144;DHT22;12307;50.828;6.080;2023-04-24T08:45:02;20.00;54.80
24144;DHT22;12307;50.828;6.080;2023-04-24T08:47:30;20.00;54.80
24144;DHT22;12307;50.828;6.080;2023-04-24T08:49:56;20.10;54.80
24144;DHT22;12307;50.828;6.080;2023-04-24T08:52:23;20.10;54.80
24144;DHT22;12307;50.828;6.080;2023-04-24T08:54:48;20.10;54.80
24144;DHT22;12307;50.828;6.080;2023-04-24T08:57:15;20.10;54.80
24144;DHT22;12307;50.828;6.080;2023-04-24T08:59:42;20.10;54.80
24144;DHT22;12307;50.828;6.080;2023-04-24T09:02:10;20.10;54.80
24144;DHT22;12307;50.828;6.080;2023-04-24T09:04:38;20.10;54.80
24144;DHT22;12307;50.828;6.080;2023-04-24T09:07:06;20.10;54.80
24144;DHT22;12307;50.828;6.080;2023-04-24T09:09:32;20.10;54.80
24144;DHT22;12307;50.828;6.080;2023-04-24T09:11:58;20.10;54.80
24144;DHT22;12307;50.828;6.080;2023-04-24T09:14:24;20.10;54.80
24144;DHT22;12307;50.828;6.080;2023-04-24T09:16:50;20.10;54.80
24144;DHT22;12307;50.828;6.080;2023-04-24T09:19:16;20.10;54.90
24144;DHT22;12307;50.828;6.080;2023-04-24T09:21:46;20.10;54.90
24144;DHT22;12307;50.828;6.080;2023-04-24T09:24:15;20.10;54.90
24144;DHT22;12307;50.828;6.080;2023-04-24T09:26:43;20.10;54.90
24144;DHT22;12307;50.828;6.080;2023-04-24T09:29:14;20.10;54.90
24144;DHT22;12307;50.828;6.080;2023-04-24T09:31:40;20.10;54.90
24144;DHT22;12307;50.828;6.080;2023-04-24T09:34:07;20.20;54.90
24144;DHT22;12307;50.828;6.080;2023-04-24T09:36:33;20.20;54.90
24144;DHT22;12307;50.828;6.080;2023-04-24T09:39:01;20.10;54.90
24144;DHT22;12307;50.828;6.080;2023-04-24T09:41:27;20.20;54.90
24144;DHT22;12307;50.828;6.080;2023-04-24T09:43:55;20.20;54.90
24144;DHT22;12307;50.828;6.080;2023-04-24T09:46:28;20.20;54.80
24144;DHT22;12307;50.828;6.080;2023-04-24T09:48:55;20.30;54.80
24144;DHT22;12307;50.828;6.080;2023-04-24T09:51:33;20.40;54.80
24144;DHT22;12307;50.828;6.080;2023-04-24T09:54:00;20.40;54.80
24144;DHT22;12307;50.828;6.080;2023-04-24T09:56:26;20.50;54.80
24144;DHT22;12307;50.828;6.080;2023-04-24T09:58:52;20.50;54.80
24144;DHT22;12307;50.828;6.080;2023-04-24T10:01:29;20.50;54.80
24144;DHT22;12307;50.828;6.080;2023-04-24T10:03:55;20.50;54.80
24144;DHT22;12307;50.828;6.080;2023-04-24T10:06:21;20.50;54.90
24144;DHT22;12307;50.828;6.080;2023-04-24T10:08:48;20.50;54.90
24144;DHT22;12307;50.828;6.080;2023-04-24T10:11:17;20.60;54.80
24144;DHT22;12307;50.828;6.080;2023-04-24T10:13:43;20.80;54.70
24144;DHT22;12307;50.828;6.080;2023-04-24T10:16:09;20.90;54.60
24144;DHT22;12307;50.828;6.080;2023-04-24T10:18:36;21.00;54.50
24144;DHT22;12307;50.828;6.080;2023-04-24T10:21:02;21.00;54.40
24144;DHT22;12307;50.828;6.080;2023-04-24T10:23:28;21.10;54.50
24144;DHT22;12307;50.828;6.080;2023-04-24T10:25:54;21.10;54.40
24144;DHT22;12307;50.828;6.080;2023-04-24T10:28:22;21.40;54.20
24144;DHT22;12307;50.828;6.080;2023-04-24T10:30:50;21.70;54.00
24144;DHT22;12307;50.828;6.080;2023-04-24T10:33:16;21.90;53.70
24144;DHT22;12307;50.828;6.080;2023-04-24T10:35:45;22.00;53.50
24144;DHT22;12307;50.828;6.080;2023-04-24T10:38:16;22.10;53.60
24144;DHT22;12307;50.828;6.080;2023-04-24T10:40:43;22.10;53.60
24144;DHT22;12307;50.828;6.080;2023-04-24T10:43:09;22.30;53.40
24144;DHT22;12307;50.828;6.080;2023-04-24T10:45:38;22.70;53.10
24144;DHT22;12307;50.828;6.080;2023-04-24T10:48:05;23.10;52.70
24144;DHT22;12307;50.828;6.080;2023-04-24T10:50:44;23.30;52.30
24144;DHT22;12307;50.828;6.080;2023-04-24T10:53:13;23.50;52.10
24144;DHT22;12307;50.828;6.080;2023-04-24T10:55:42;23.50;52.10
24144;DHT22;12307;50.828;6.080;2023-04-24T10:58:09;23.40;52.30
24144;DHT22;12307;50.828;6.080;2023-04-24T11:00:38;23.20;52.40
24144;DHT22;12307;50.828;6.080;2023-04-24T11:03:05;23.10;52.60
24144;DHT22;12307;50.828;6.080;2023-04-24T11:05:51;23.00;52.60
24144;DHT22;12307;50.828;6.080;2023-04-24T11:08:26;22.90;53.30
24144;DHT22;12307;50.828;6.080;2023-04-24T11:11:01;22.80;53.00
24144;DHT22;12307;50.828;6.080;2023-04-24T11:14:05;22.60;53.20
24144;DHT22;12307;50.828;6.080;2023-04-24T11:16:33;22.50;53.30
24144;DHT22;12307;50.828;6.080;2023-04-24T11:19:04;22.50;53.30
24144;DHT22;12307;50.828;6.080;2023-04-24T11:21:41;22.50;53.30
24144;DHT22;12307;50.828;6.080;2023-04-24T11:24:30;22.60;53.20
24144;DHT22;12307;50.828;6.080;2023-04-24T11:26:58;22.60;53.20
24144;DHT22;12307;50.828;6.080;2023-04-24T11:29:40;22.50;53.20
24144;DHT22;12307;50.828;6.080;2023-04-24T11:32:24;22.40;53.20
24144;DHT22;12307;50.828;6.080;2023-04-24T11:34:52;22.40;53.20
24144;DHT22;12307;50.828;6.080;2023-04-24T11:37:18;22.40;53.20
24144;DHT22;12307;50.828;6.080;2023-04-24T11:39:44;22.40;53.20
24144;DHT22;12307;50.828;6.080;2023-04-24T11:42:10;22.50;53.20
24144;DHT22;12307;50.828;6.080;2023-04-24T11:44:36;22.50;53.10
24144;DHT22;12307;50.828;6.080;2023-04-24T11:47:06;22.60;53.10
24144;DHT22;12307;50.828;6.080;2023-04-24T11:49:36;22.60;53.20
24144;DHT22;12307;50.828;6.080;2023-04-24T11:52:02;22.50;53.10
24144;DHT22;12307;50.828;6.080;2023-04-24T11:54:28;22.60;53.10
24144;DHT22;12307;50.828;6.080;2023-04-24T11:56:55;22.70;53.10
24144;DHT22;12307;50.828;6.080;2023-04-24T11:59:21;22.80;53.00
24144;DHT22;12307;50.828;6.080;2023-04-24T12:01:47;22.90;53.00
24144;DHT22;12307;50.828;6.080;2023-04-24T12:04:16;23.00;52.90
24144;DHT22;12307;50.828;6.080;2023-04-24T12:07:00;23.00;52.90
24144;DHT22;12307;50.828;6.080;2023-04-24T12:09:26;23.00;52.90
24144;DHT22;12307;50.828;6.080;2023-04-24T12:11:56;22.90;53.00
24144;DHT22;12307;50.828;6.080;2023-04-24T12:14:22;22.80;53.10
24144;DHT22;12307;50.828;6.080;2023-04-24T12:16:48;22.70;53.20
24144;DHT22;12307;50.828;6.080;2023-04-24T12:19:20;22.50;53.40
24144;DHT22;12307;50.828;6.080;2023-04-24T12:21:59;22.40;53.60
24144;DHT22;12307;50.828;6.080;2023-04-24T12:24:25;22.20;53.60
24144;DHT22;12307;50.828;6.080;2023-04-24T12:26:51;22.10;53.80
24144;DHT22;12307;50.828;6.080;2023-04-24T12:29:20;22.00;53.90
24144;DHT22;12307;50.828;6.080;2023-04-24T12:31:45;21.90;53.90
24144;DHT22;12307;50.828;6.080;2023-04-24T12:34:18;21.80;53.90
24144;DHT22;12307;50.828;6.080;2023-04-24T12:36:45;21.80;53.90
24144;DHT22;12307;50.828;6.080;2023-04-24T12:39:15;21.80;53.90
24144;DHT22;12307;50.828;6.080;2023-04-24T12:41:50;21.80;54.50
24144;DHT22;12307;50.828;6.080;2023-04-24T12:44:17;21.80;54.00
24144;DHT22;12307;50.828;6.080;2023-04-24T12:46:43;21.70;53.90
24144;DHT22;12307;50.828;6.080;2023-04-24T12:49:10;21.70;54.00
24144;DHT22;12307;50.828;6.080;2023-04-24T12:51:37;21.70;54.00
24144;DHT22;12307;50.828;6.080;2023-04-24T12:54:02;21.60;54.00
24144;DHT22;12307;50.828;6.080;2023-04-24T12:56:28;21.60;54.00
24144;DHT22;12307;50.828;6.080;2023-04-24T12:58:54;21.60;54.10
24144;DHT22;12307;50.828;6.080;2023-04-24T13:01:20;21.50;54.80
24144;DHT22;12307;50.828;6.080;2023-04-24T13:03:45;21.50;54.20
24144;DHT22;12307;50.828;6.080;2023-04-24T13:06:11;21.50;54.80
24144;DHT22;12307;50.828;6.080;2023-04-24T13:08:38;21.50;54.20
24144;DHT22;12307;50.828;6.080;2023-04-24T13:11:04;21.50;54.20
24144;DHT22;12307;50.828;6.080;2023-04-24T13:13:30;21.60;54.10
24144;DHT22;12307;50.828;6.080;2023-04-24T13:15:55;21.70;54.00
24144;DHT22;12307;50.828;6.080;2023-04-24T13:18:21;21.80;53.80
24144;DHT22;12307;50.828;6.080;2023-04-24T13:20:47;21.90;53.70
24144;DHT22;12307;50.828;6.080;2023-04-24T13:23:12;21.90;53.60
24144;DHT22;12307;50.828;6.080;2023-04-24T13:25:40;22.00;53.50
24144;DHT22;12307;50.828;6.080;2023-04-24T13:28:06;22.00;53.50
24144;DHT22;12307;50.828;6.080;2023-04-24T13:30:32;22.10;53.50
24144;DHT22;12307;50.828;6.080;2023-04-24T13:32:57;22.10;53.50
24144;DHT22;12307;50.828;6.080;2023-04-24T13:35:23;22.20;53.40
24144;DHT22;12307;50.828;6.080;2023-04-24T13:37:49;22.20;53.40
24144;DHT22;12307;50.828;6.080;2023-04-24T13:40:15;22.20;53.40
24144;DHT22;12307;50.828;6.080;2023-04-24T13:42:42;22.20;53.40
24144;DHT22;12307;50.828;6.080;2023-04-24T13:45:09;22.20;53.40
24144;DHT22;12307;50.828;6.080;2023-04-24T13:47:35;22.20;53.40
24144;DHT22;12307;50.828;6.080;2023-04-24T13:50:01;22.20;53.40
24144;DHT22;12307;50.828;6.080;2023-04-24T13:52:27;22.20;53.40
24144;DHT22;12307;50.828;6.080;2023-04-24T13:54:53;22.20;53.40
24144;DHT22;12307;50.828;6.080;2023-04-24T13:57:18;22.20;53.40
24144;DHT22;12307;50.828;6.080;2023-04-24T13:59:45;22.20;53.50
24144;DHT22;12307;50.828;6.080;2023-04-24T14:02:11;22.10;53.50
24144;DHT22;12307;50.828;6.080;2023-04-24T14:04:37;22.10;53.50
24144;DHT22;12307;50.828;6.080;2023-04-24T14:07:02;22.10;53.60
24144;DHT22;12307;50.828;6.080;2023-04-24T14:09:28;22.10;53.60
24144;DHT22;12307;50.828;6.080;2023-04-24T14:11:54;22.00;53.50
24144;DHT22;12307;50.828;6.080;2023-04-24T14:14:20;22.00;53.50
24144;DHT22;12307;50.828;6.080;2023-04-24T14:16:47;22.00;53.60
24144;DHT22;12307;50.828;6.080;2023-04-24T14:19:12;22.00;53.50
24144;DHT22;12307;50.828;6.080;2023-04-24T14:21:38;22.00;53.50
24144;DHT22;12307;50.828;6.080;2023-04-24T14:24:04;22.00;53.60
24144;DHT22;12307;50.828;6.080;2023-04-24T14:26:30;22.00;53.70
24144;DHT22;12307;50.828;6.080;2023-04-24T14:28:55;22.00;53.70
24144;DHT22;12307;50.828;6.080;2023-04-24T14:31:24;21.90;53.70
24144;DHT22;12307;50.828;6.080;2023-04-24T14:33:51;21.90;53.70
24144;DHT22;12307;50.828;6.080;2023-04-24T14:36:17;21.90;53.70
24144;DHT22;12307;50.828;6.080;2023-04-24T14:38:42;21.90;53.80
24144;DHT22;12307;50.828;6.080;2023-04-24T14:41:08;21.90;53.80
24144;DHT22;12307;50.828;6.080;2023-04-24T14:43:35;21.80;53.70
24144;DHT22;12307;50.828;6.080;2023-04-24T14:46:01;21.80;53.80
24144;DHT22;12307;50.828;6.080;2023-04-24T14:48:27;21.80;53.80
24144;DHT22;12307;50.828;6.080;2023-04-24T14:50:54;21.80;53.80
24144;DHT22;12307;50.828;6.080;2023-04-24T14:53:20;21.70;53.80
24144;DHT22;12307;50.828;6.080;2023-04-24T14:55:46;21.70;53.80
24144;DHT22;12307;50.828;6.080;2023-04-24T14:58:11;21.80;53.80
24144;DHT22;12307;50.828;6.080;2023-04-24T15:00:37;21.80;53.90
24144;DHT22;12307;50.828;6.080;2023-04-24T15:03:03;21.80;53.80
24144;DHT22;12307;50.828;6.080;2023-04-24T15:05:29;21.80;53.90
24144;DHT22;12307;50.828;6.080;2023-04-24T15:07:57;21.70;53.80
24144;DHT22;12307;50.828;6.080;2023-04-24T15:10:22;21.70;53.80
24144;DHT22;12307;50.828;6.080;2023-04-24T15:12:49;21.70;53.80
24144;DHT22;12307;50.828;6.080;2023-04-24T15:15:15;21.80;53.90
24144;DHT22;12307;50.828;6.080;2023-04-24T15:17:40;21.70;53.90
24144;DHT22;12307;50.828;6.080;2023-04-24T15:20:07;21.70;53.90
24144;DHT22;12307;50.828;6.080;2023-04-24T15:22:34;21.70;54.00
24144;DHT22;12307;50.828;6.080;2023-04-24T15:25:01;21.60;54.00
24144;DHT22;12307;50.828;6.080;2023-04-24T15:27:33;21.60;54.00